Snelling, South Carolina
Current Conditions -  °F | °C
As of 11:15 PM on Sunday 23 Nov 2014 (Local Time) from KBNL Reporting Station
Broken Clouds Broken Clouds  
Wind Chill: 66°   Ceiling: 12000
Heat Index: 66°   Visibility: NA
Dew Point: 64°   Wind: 10mph
Humidity: 94%   Direction: 220°SW
Pressure: 29.81"   Gusts: NA
Location:  33.2109°N, 81.3471°W
Report Text: KBNL 240415Z AUTO 22009KT BKN120 19/18 A2981 RMK AO2 LTG DSNT E
Loading
Personal Weather Stations






























Interactive Weather Map New forecast layout! Learn more

10-Day Weather Forecast

Advertisements
Track Severe Weather on mobile